Time;durP1;ratioP1;P1;durP2;ratioP2;P2;SDS_P1;SDS_P2;PMS_P1;PMS_P2;Temp;Humidity;BMP_temperature;BMP_pressure;BME280_temperature;BME280_humidity;BME280_pressure;Samples;Min_cycle;Max_cycle;Signal;HPM_P1;HPM_P2
2021/12/31 00:00:04;;;;;;;20.42;12.02;;;;;;;3.83;nan;95751.63;6096566;23;20014;-86
2021/12/31 00:02:30;;;;;;;22.15;12.80;;;;;;;2.25;nan;95544.19;6096582;23;20484;-86
2021/12/31 00:04:56;;;;;;;21.90;12.93;;;;;;;4.30;nan;95818.38;6121497;23;20006;-87
2021/12/31 00:07:21;;;;;;;23.65;13.05;;;;;;;3.34;nan;95679.91;6096510;23;20422;-87
2021/12/31 00:09:47;;;;;;;23.25;13.25;;;;;;;4.37;nan;95828.81;6096326;23;20012;-87
2021/12/31 00:12:13;;;;;;;24.70;13.13;;;;;;;3.52;nan;95689.59;6096032;23;20010;-86
2021/12/31 00:14:39;;;;;;;22.33;12.98;;;;;;;3.99;nan;95756.31;6096269;23;20006;-87
2021/12/31 00:17:05;;;;;;;26.00;13.60;;;;;;;3.75;nan;95762.41;6097005;23;20381;-87
2021/12/31 00:19:33;;;;;;;23.50;14.40;;;;;;;1.94;nan;95508.38;6098046;23;20013;-87
2021/12/31 00:22:04;;;;;;;25.10;14.02;;;;;;;2.30;nan;95546.94;6120701;23;20366;-87
2021/12/31 00:24:30;;;;;;;27.30;13.73;;;;;;;4.04;nan;95816.84;6097303;23;20725;-87
2021/12/31 00:26:55;;;;;;;27.88;14.52;;;;;;;3.58;nan;95740.41;6120910;23;20096;-86
2021/12/31 00:29:22;;;;;;;26.83;14.50;;;;;;;3.37;nan;95705.66;6096838;23;20026;-86
2021/12/31 00:31:47;;;;;;;24.98;14.10;;;;;;;3.17;nan;95670.97;6123152;23;20012;-86
2021/12/31 00:34:15;;;;;;;28.83;15.77;;;;;;;3.52;nan;95715.81;6120937;23;20006;-86
2021/12/31 00:36:45;;;;;;;30.73;15.52;;;;;;;4.22;nan;95839.69;6121489;23;20458;-86
2021/12/31 00:39:12;;;;;;;27.25;15.02;;;;;;;3.23;nan;95717.28;6097081;23;20018;-86
2021/12/31 00:41:38;;;;;;;29.58;15.10;;;;;;;4.03;nan;95831.00;6123461;23;20025;-86
2021/12/31 00:44:04;;;;;;;29.10;15.48;;;;;;;3.80;nan;95796.69;6096393;23;20370;-86
2021/12/31 00:46:30;;;;;;;28.38;15.45;;;;;;;4.18;nan;95854.28;6120806;23;20006;-86
2021/12/31 00:48:56;;;;;;;30.58;16.35;;;;;;;2.73;nan;95632.63;6097104;23;20013;-86
2021/12/31 00:51:21;;;;;;;31.30;16.92;;;;;;;3.48;nan;95738.25;6096401;23;20528;-86
2021/12/31 00:53:47;;;;;;;31.20;16.27;;;;;;;3.85;nan;95802.06;6096644;23;20639;-86
2021/12/31 00:56:12;;;;;;;32.03;16.08;;;;;;;2.78;nan;95563.88;6123265;23;20298;-86
2021/12/31 00:58:38;;;;;;;28.00;15.20;;;;;;;4.02;nan;95786.59;6096582;23;20081;-86
2021/12/31 01:01:03;;;;;;;31.48;17.27;;;;;;;3.44;nan;95740.50;6122466;23;20037;-86
2021/12/31 01:03:29;;;;;;;31.55;15.90;;;;;;;4.04;nan;95805.53;6098517;23;20037;-86
2021/12/31 01:05:54;;;;;;;30.33;16.77;;;;;;;4.10;nan;95815.97;6121205;23;20009;-86
2021/12/31 01:08:20;;;;;;;31.15;16.88;;;;;;;3.69;nan;95777.19;6130475;23;20073;-86
2021/12/31 01:10:45;;;;;;;32.08;17.90;;;;;;;3.82;nan;95771.00;6135659;23;20009;-86
2021/12/31 01:13:18;;;;;;;31.70;16.98;;;;;;;3.94;nan;95797.34;6095998;23;20038;-86
2021/12/31 01:15:46;;;;;;;32.88;17.30;;;;;;;3.78;nan;95781.16;6097670;23;20450;-87
2021/12/31 01:20:39;;;;;;;33.53;17.52;;;;;;;2.66;nan;95590.00;6124717;23;20513;-86
2021/12/31 01:23:04;;;;;;;32.00;16.67;;;;;;;3.40;nan;95701.81;6120679;23;20016;-86
2021/12/31 01:25:30;;;;;;;29.42;16.58;;;;;;;0.58;nan;95279.06;6122958;23;20005;-87
2021/12/31 01:28:00;;;;;;;31.73;18.42;;;;;;;-1.13;nan;95073.78;6121720;23;20080;-87
2021/12/31 01:30:26;;;;;;;33.17;16.83;;;;;;;1.86;nan;95511.22;6095731;23;20090;-86
2021/12/31 01:32:52;;;;;;;28.95;17.15;;;;;;;3.70;nan;95823.41;6095486;23;20049;-86
2021/12/31 01:35:18;;;;;;;28.08;14.73;;;;;;;3.93;nan;95846.41;6095854;23;20092;-86
2021/12/31 01:37:44;;;;;;;26.63;15.48;;;;;;;3.06;nan;95710.97;6096373;23;20410;-86
2021/12/31 01:40:10;;;;;;;24.58;14.07;;;;;;;3.49;nan;95779.19;6096292;23;20437;-86
2021/12/31 01:42:37;;;;;;;22.30;13.43;;;;;;;3.04;nan;95737.41;6095671;23;20010;-86
2021/12/31 01:45:10;;;;;;;23.70;13.20;;;;;;;3.87;nan;95842.03;6095602;23;20052;-86
2021/12/31 01:48:48;;;;;;;22.90;13.13;;;;;;;2.87;nan;95689.16;6096175;23;20086;-86
2021/12/31 01:50:31;;;;;;;21.50;12.55;;;;;;;3.73;nan;95849.22;6095695;23;20014;-86
2021/12/31 01:53:06;;;;;;;37.15;17.70;;;;;;;2.65;nan;95696.56;3227350;23;10002339;-86
2021/12/31 01:55:33;;;;;;;23.35;12.40;;;;;;;3.32;nan;95778.13;3574995;23;10001242;-86
2021/12/31 01:58:00;;;;;;;27.48;12.80;;;;;;;3.09;nan;95755.91;6095955;23;20017;-86
2021/12/31 02:00:26;;;;;;;20.98;12.23;;;;;;;3.59;nan;95831.16;6097443;23;20006;-87
2021/12/31 02:02:51;;;;;;;20.45;12.23;;;;;;;3.55;nan;95854.38;6097080;23;20012;-86
2021/12/31 02:05:17;;;;;;;20.33;11.15;;;;;;;3.70;nan;95899.47;6097031;23;20009;-86
2021/12/31 02:07:43;;;;;;;20.40;11.25;;;;;;;3.15;nan;95785.69;6096656;23;20029;-86
2021/12/31 02:10:09;;;;;;;21.23;11.90;;;;;;;2.88;nan;95740.53;6096246;23;20031;-87
2021/12/31 02:12:40;;;;;;;22.17;12.07;;;;;;;3.73;nan;95864.97;6095213;23;20043;-86
2021/12/31 02:15:07;;;;;;;20.15;11.80;;;;;;;3.09;nan;95773.44;6095534;23;20020;-86
2021/12/31 02:17:32;;;;;;;18.75;11.40;;;;;;;3.18;nan;95801.00;6096685;23;20712;-86
2021/12/31 02:20:05;;;;;;;19.05;10.95;;;;;;;2.84;nan;95741.94;6095209;23;20006;-86
2021/12/31 02:22:34;;;;;;;19.08;10.93;;;;;;;3.75;nan;95872.59;6094825;23;20044;-86
2021/12/31 02:25:00;;;;;;;17.40;10.63;;;;;;;3.36;nan;95805.50;6095824;23;20454;-86
2021/12/31 02:27:27;;;;;;;18.88;11.05;;;;;;;3.46;nan;95827.63;6096308;23;20184;-87
2021/12/31 02:29:53;;;;;;;15.15;8.98;;;;;;;3.42;nan;95838.75;6123303;23;20635;-86
2021/12/31 02:32:19;;;;;;;17.90;9.45;;;;;;;3.50;nan;95849.00;6124800;23;20005;-86
2021/12/31 02:34:46;;;;;;;17.95;9.98;;;;;;;2.69;nan;95708.19;6129999;23;20002;-86
2021/12/31 02:37:12;;;;;;;19.77;8.40;;;;;;;3.55;nan;95843.91;6120838;23;20012;-86
2021/12/31 02:39:39;;;;;;;16.83;9.80;;;;;;;3.36;nan;95803.69;6118389;23;20009;-87
2021/12/31 02:42:08;;;;;;;16.58;9.63;;;;;;;3.10;nan;95754.88;6115821;23;20494;-86
2021/12/31 02:44:35;;;;;;;15.90;9.65;;;;;;;3.58;nan;95830.38;6119384;23;20010;-86
2021/12/31 02:47:04;;;;;;;21.83;10.35;;;;;;;3.44;nan;95818.34;6119728;23;20076;-86
2021/12/31 02:49:34;;;;;;;19.58;10.43;;;;;;;3.44;nan;95840.13;6096004;23;20449;-87
2021/12/31 02:52:02;;;;;;;21.02;10.32;;;;;;;3.78;nan;95896.59;6098364;23;20230;-87
2021/12/31 02:54:29;;;;;;;20.08;11.35;;;;;;;3.39;nan;95826.06;6122783;23;20409;-87
2021/12/31 02:56:55;;;;;;;20.90;11.23;;;;;;;1.30;nan;95539.84;6122239;23;20018;-86
2021/12/31 02:59:21;;;;;;;22.90;12.07;;;;;;;3.49;nan;95898.00;6122083;23;20016;-86
2021/12/31 03:01:48;;;;;;;22.08;11.52;;;;;;;3.52;nan;95846.13;6096304;23;20065;-86
2021/12/31 03:04:16;;;;;;;19.42;10.77;;;;;;;2.68;nan;95722.31;6096581;23;20064;-87
2021/12/31 03:06:43;;;;;;;20.27;10.32;;;;;;;1.48;nan;95544.41;6096988;23;20005;-86
2021/12/31 03:09:11;;;;;;;17.00;10.15;;;;;;;3.14;nan;95841.75;6097142;23;20064;-86
2021/12/31 03:11:37;;;;;;;22.65;11.07;;;;;;;3.33;nan;95843.44;6096132;23;20008;-86
2021/12/31 03:14:06;;;;;;;17.85;10.18;;;;;;;3.75;nan;95898.81;6095829;23;20005;-86
2021/12/31 03:16:32;;;;;;;16.73;10.13;;;;;;;3.32;nan;95880.34;6095651;23;20014;-86
2021/12/31 03:18:58;;;;;;;16.88;10.15;;;;;;;3.05;nan;95832.53;6121937;23;20395;-86
2021/12/31 03:21:24;;;;;;;19.08;10.38;;;;;;;2.35;nan;95707.81;6096289;23;20105;-86
2021/12/31 03:23:52;;;;;;;18.80;9.70;;;;;;;3.60;nan;95909.63;6096724;23;20514;-86
2021/12/31 03:26:20;;;;;;;16.95;9.70;;;;;;;2.87;nan;95796.56;6097518;23;20032;-86
2021/12/31 03:28:45;;;;;;;18.35;9.90;;;;;;;3.45;nan;95890.75;6122275;23;20101;-86
2021/12/31 03:31:11;;;;;;;16.90;9.05;;;;;;;1.78;nan;95639.63;6097656;23;20013;-87
2021/12/31 03:33:37;;;;;;;16.73;8.40;;;;;;;2.75;nan;95797.44;6097991;23;20009;-86
2021/12/31 03:36:03;;;;;;;14.75;8.48;;;;;;;2.83;nan;95842.50;6123356;23;20032;-87
2021/12/31 03:38:28;;;;;;;16.23;8.70;;;;;;;2.21;nan;95697.38;6138515;23;20078;-87
2021/12/31 03:40:54;;;;;;;16.33;9.07;;;;;;;2.17;nan;95693.59;6128413;23;20069;-86
2021/12/31 03:43:19;;;;;;;15.43;8.80;;;;;;;2.53;nan;95765.50;6122827;23;20141;-86
2021/12/31 03:45:46;;;;;;;20.50;10.40;;;;;;;3.16;nan;95870.38;6122773;23;20029;-86
2021/12/31 03:48:12;;;;;;;14.15;8.05;;;;;;;3.46;nan;95936.94;6123174;23;20009;-87
2021/12/31 03:50:38;;;;;;;17.40;8.55;;;;;;;3.19;nan;95875.19;6122725;23;20089;-86
2021/12/31 03:53:04;;;;;;;16.20;8.60;;;;;;;2.53;nan;95804.75;6123007;23;20087;-86
2021/12/31 03:55:29;;;;;;;15.75;9.02;;;;;;;3.08;nan;95924.63;6123175;23;20036;-86
2021/12/31 03:57:55;;;;;;;16.50;8.85;;;;;;;-0.17;nan;95390.84;6123521;23;20420;-86
2021/12/31 04:00:20;;;;;;;17.88;9.55;;;;;;;2.48;nan;95799.34;6125414;23;20021;-86
2021/12/31 04:02:46;;;;;;;16.10;8.85;;;;;;;3.39;nan;95930.94;6125295;23;20327;-86
2021/12/31 04:05:11;;;;;;;18.58;9.20;;;;;;;2.64;nan;95819.84;6122034;23;20022;-86
2021/12/31 04:07:37;;;;;;;16.02;9.15;;;;;;;2.50;nan;95819.09;6097973;23;20433;-86
2021/12/31 04:10:04;;;;;;;16.83;9.60;;;;;;;3.41;nan;95932.34;6122767;23;20025;-86
2021/12/31 04:12:29;;;;;;;21.90;10.38;;;;;;;3.54;nan;95922.78;6123991;23;20013;-86
2021/12/31 04:14:54;;;;;;;19.75;9.88;;;;;;;2.96;nan;95873.09;6124082;23;20006;-86
2021/12/31 04:17:20;;;;;;;16.70;9.88;;;;;;;2.40;nan;95762.94;6097480;23;20121;-86
2021/12/31 04:19:51;;;;;;;19.13;10.07;;;;;;;2.73;nan;95815.97;6097536;23;20223;-86
2021/12/31 04:22:17;;;;;;;17.13;9.40;;;;;;;3.12;nan;95918.97;6097489;23;20014;-86
2021/12/31 04:27:09;;;;;;;17.80;9.82;;;;;;;3.34;nan;95921.09;6123375;23;20558;-86
2021/12/31 04:29:34;;;;;;;17.35;8.10;;;;;;;2.32;nan;95775.25;6123919;23;20006;-86
2021/12/31 04:32:03;;;;;;;13.75;7.95;;;;;;;2.81;nan;95846.38;6121608;23;20069;-86
2021/12/31 04:34:29;;;;;;;15.70;9.30;;;;;;;3.23;nan;95906.00;6123492;23;20013;-86
2021/12/31 04:36:55;;;;;;;17.23;9.35;;;;;;;2.64;nan;95811.97;6120916;23;20418;-86
2021/12/31 04:39:21;;;;;;;18.58;9.38;;;;;;;1.07;nan;95583.94;6096796;23;20021;-86
2021/12/31 04:41:47;;;;;;;18.90;9.80;;;;;;;2.69;nan;95838.34;6121347;23;20407;-86
2021/12/31 04:44:12;;;;;;;15.32;8.85;;;;;;;1.92;nan;95722.25;6097491;23;20072;-86
2021/12/31 04:46:38;;;;;;;13.18;7.97;;;;;;;2.89;nan;95945.69;6123815;23;20053;-86
2021/12/31 04:49:06;;;;;;;14.18;8.52;;;;;;;2.13;nan;95773.53;6099199;23;20014;-86
2021/12/31 04:51:32;;;;;;;19.60;9.82;;;;;;;2.53;nan;95886.75;6121419;23;20010;-86
2021/12/31 04:53:58;;;;;;;15.45;9.18;;;;;;;1.07;nan;95604.81;6123745;23;20006;-86
2021/12/31 04:56:23;;;;;;;19.23;10.13;;;;;;;1.05;nan;95646.03;6121508;23;20049;-86
2021/12/31 04:58:49;;;;;;;18.73;9.60;;;;;;;3.01;nan;95896.84;6098406;23;20020;-86
2021/12/31 05:01:15;;;;;;;21.30;9.88;;;;;;;3.12;nan;95903.25;6122349;23;20014;-86
2021/12/31 05:03:44;;;;;;;21.75;10.27;;;;;;;3.53;nan;95940.34;6132784;23;20086;-86
2021/12/31 05:06:09;;;;;;;15.65;9.48;;;;;;;3.45;nan;95949.25;6107965;23;20082;-86
2021/12/31 05:08:35;;;;;;;19.17;9.93;;;;;;;2.57;nan;95830.34;6121490;23;20010;-86
2021/12/31 05:11:00;;;;;;;18.90;10.13;;;;;;;3.36;nan;95934.78;6096908;23;20013;-86
2021/12/31 05:13:26;;;;;;;18.80;10.02;;;;;;;0.17;nan;95441.13;6096535;23;20033;-86
2021/12/31 05:15:53;;;;;;;16.08;9.98;;;;;;;3.32;nan;95938.03;6096350;23;20009;-86
2021/12/31 05:18:18;;;;;;;16.98;9.98;;;;;;;3.17;nan;95916.53;6121079;23;20652;-86
2021/12/31 05:20:44;;;;;;;23.23;10.15;;;;;;;3.16;nan;95915.72;6120547;23;20013;-86
2021/12/31 05:23:10;;;;;;;14.70;8.45;;;;;;;2.52;nan;95822.28;6096317;23;20018;-86
2021/12/31 05:25:35;;;;;;;13.32;7.85;;;;;;;2.62;nan;95845.41;6121489;23;20077;-86
2021/12/31 05:28:01;;;;;;;16.67;9.65;;;;;;;1.74;nan;95713.47;6097022;23;20520;-86
2021/12/31 05:30:26;;;;;;;15.02;8.75;;;;;;;2.54;nan;95850.88;6096974;23;20001;-86
2021/12/31 05:32:52;;;;;;;13.65;7.50;;;;;;;2.50;nan;95836.63;6123365;23;20354;-86
2021/12/31 05:35:18;;;;;;;17.58;9.30;;;;;;;2.79;nan;95892.91;6121499;23;20466;-85
2021/12/31 05:37:43;;;;;;;18.00;10.43;;;;;;;3.17;nan;95940.13;6097696;23;20424;-86
2021/12/31 05:40:10;;;;;;;17.35;9.55;;;;;;;2.13;nan;95785.81;6096158;23;20426;-86
2021/12/31 05:42:36;;;;;;;21.23;11.15;;;;;;;-1.78;nan;95203.63;6122285;23;20492;-88
2021/12/31 05:45:03;;;;;;;18.70;10.40;;;;;;;2.73;nan;95912.88;6097205;23;20010;-87
2021/12/31 05:47:28;;;;;;;15.82;8.90;;;;;;;0.99;nan;95649.47;6096594;23;20013;-87
2021/12/31 05:49:54;;;;;;;16.17;9.77;;;;;;;1.64;nan;95689.56;6123603;23;20559;-87
2021/12/31 05:52:20;;;;;;;17.30;10.00;;;;;;;0.72;nan;95555.47;6121027;23;20019;-87
2021/12/31 05:54:46;;;;;;;20.17;11.02;;;;;;;2.61;nan;95885.72;6096613;23;20016;-87
2021/12/31 05:57:12;;;;;;;20.10;10.60;;;;;;;0.39;nan;95570.34;6095340;23;20042;-87
2021/12/31 05:59:37;;;;;;;21.67;11.38;;;;;;;3.08;nan;95940.34;6120856;23;20081;-87
2021/12/31 06:02:03;;;;;;;21.33;11.40;;;;;;;2.72;nan;95919.94;6120707;23;20018;-87
2021/12/31 06:04:28;;;;;;;22.83;11.80;;;;;;;0.52;nan;95530.41;6096177;23;20082;-87
2021/12/31 06:06:54;;;;;;;23.08;11.65;;;;;;;1.27;nan;95668.31;6120363;23;20431;-87
2021/12/31 06:09:19;;;;;;;19.58;11.20;;;;;;;2.67;nan;95900.63;6123002;23;20077;-87
2021/12/31 06:11:45;;;;;;;19.85;9.98;;;;;;;3.09;nan;95960.31;6097607;23;20012;-87
2021/12/31 06:14:11;;;;;;;18.38;10.15;;;;;;;2.81;nan;95910.03;6098280;23;20451;-87
2021/12/31 06:16:42;;;;;;;19.45;10.02;;;;;;;2.51;nan;95867.84;6126872;23;20106;-87
2021/12/31 06:19:11;;;;;;;16.77;9.93;;;;;;;3.37;nan;95980.16;6141065;23;20009;-87
2021/12/31 06:21:42;;;;;;;19.70;10.13;;;;;;;2.99;nan;95922.44;6099394;23;20080;-87
2021/12/31 06:24:08;;;;;;;17.73;10.55;;;;;;;3.41;nan;95987.41;6122192;23;20005;-87
2021/12/31 06:26:35;;;;;;;22.83;11.70;;;;;;;2.10;nan;95787.00;6122297;23;20010;-87
2021/12/31 06:29:00;;;;;;;16.13;10.45;;;;;;;3.06;nan;95952.84;6105291;23;20175;-87
2021/12/31 06:31:26;;;;;;;26.85;11.18;;;;;;;3.50;nan;95990.59;6132264;23;20346;-87
2021/12/31 06:33:52;;;;;;;20.45;11.43;;;;;;;1.97;nan;95770.53;6121319;23;20009;-87
2021/12/31 06:36:19;;;;;;;19.63;10.80;;;;;;;3.38;nan;95961.59;6121378;23;20076;-87
2021/12/31 06:38:45;;;;;;;20.42;10.65;;;;;;;2.98;nan;95889.41;6120873;23;20001;-87
2021/12/31 06:41:10;;;;;;;20.10;10.77;;;;;;;3.60;nan;95977.00;6121520;23;20029;-87
2021/12/31 06:43:36;;;;;;;21.42;11.20;;;;;;;3.59;nan;96007.69;6121192;23;20010;-87
2021/12/31 06:46:01;;;;;;;25.02;10.80;;;;;;;3.61;nan;96010.91;6120813;23;20067;-87
2021/12/31 06:48:27;;;;;;;19.05;10.00;;;;;;;2.92;nan;95914.63;6120913;23;20236;-87
2021/12/31 06:50:53;;;;;;;23.92;11.10;;;;;;;3.49;nan;95979.31;6120922;23;20052;-87
2021/12/31 06:53:18;;;;;;;21.55;10.38;;;;;;;3.24;nan;95927.78;6096283;23;20077;-87
2021/12/31 06:55:44;;;;;;;20.45;10.00;;;;;;;1.42;nan;95640.16;6097215;23;20349;-87
2021/12/31 06:58:09;;;;;;;25.92;11.82;;;;;;;3.68;nan;96003.00;6097456;23;20002;-87
2021/12/31 07:00:35;;;;;;;20.90;11.38;;;;;;;3.88;nan;96004.53;6124320;23;20076;-87
2021/12/31 07:03:05;;;;;;;19.98;11.05;;;;;;;3.30;nan;95904.16;6097746;23;20485;-87
2021/12/31 07:05:30;;;;;;;21.65;11.02;;;;;;;3.70;nan;95983.41;6122018;23;20010;-87
2021/12/31 07:07:56;;;;;;;24.75;12.60;;;;;;;3.32;nan;95917.06;6096531;23;20021;-87
2021/12/31 07:10:24;;;;;;;24.70;12.25;;;;;;;2.94;nan;95838.44;6095427;23;20115;-87
2021/12/31 07:12:54;;;;;;;21.83;12.00;;;;;;;4.00;nan;96019.56;6095407;23;20448;-87
2021/12/31 07:15:20;;;;;;;24.25;11.98;;;;;;;4.02;nan;96007.84;6095322;23;20093;-87
2021/12/31 07:17:46;;;;;;;25.20;11.73;;;;;;;3.44;nan;95903.06;6095291;23;20026;-87
2021/12/31 07:20:11;;;;;;;23.67;12.75;;;;;;;-0.75;nan;95266.56;6095263;23;20418;-87
2021/12/31 07:22:38;;;;;;;21.42;12.60;;;;;;;3.97;nan;95970.16;6095483;23;20010;-87
2021/12/31 07:25:04;;;;;;;23.55;11.82;;;;;;;3.62;nan;95910.22;6095563;23;20023;-87
2021/12/31 07:27:32;;;;;;;24.25;12.35;;;;;;;3.68;nan;95929.56;6095773;23;20014;-87
2021/12/31 07:29:57;;;;;;;25.90;12.38;;;;;;;3.18;nan;95821.97;6121381;23;20009;-87
2021/12/31 07:32:22;;;;;;;30.33;13.85;;;;;;;1.16;nan;95499.13;6095430;23;20207;-87
2021/12/31 07:34:48;;;;;;;31.60;16.20;;;;;;;2.73;nan;95760.97;6095737;23;20020;-85
2021/12/31 07:37:14;;;;;;;30.40;15.80;;;;;;;-0.76;nan;95176.47;6094833;23;20438;-85
2021/12/31 07:39:46;;;;;;;28.17;14.60;;;;;;;0.72;nan;95367.53;6121287;23;20069;-85
2021/12/31 07:42:12;;;;;;;40.15;16.02;;;;;;;3.16;nan;95747.19;6096045;23;20021;-85
2021/12/31 07:44:37;;;;;;;29.35;15.55;;;;;;;3.29;nan;95745.25;6095397;23;20006;-85
2021/12/31 07:47:03;;;;;;;28.33;14.40;;;;;;;1.74;nan;95489.41;6096014;23;20058;-85
2021/12/31 07:49:29;;;;;;;19.35;11.15;;;;;;;3.86;nan;95840.41;6122628;23;20010;-85
2021/12/31 07:51:55;;;;;;;27.50;12.13;;;;;;;4.63;nan;95971.22;6096771;23;20078;-85
2021/12/31 07:54:20;;;;;;;29.20;12.85;;;;;;;4.43;nan;95964.50;6096989;23;20089;-85
2021/12/31 07:56:46;;;;;;;24.63;12.40;;;;;;;4.96;nan;95986.63;6097363;23;20028;-85
2021/12/31 07:59:11;;;;;;;21.48;11.23;;;;;;;4.23;nan;95905.09;6098619;23;20014;-85
2021/12/31 08:01:37;;;;;;;22.63;12.27;;;;;;;4.49;nan;95932.16;6096734;23;20017;-85
2021/12/31 08:04:03;;;;;;;24.63;11.90;;;;;;;4.49;nan;95953.16;6096217;23;20017;-86
2021/12/31 08:06:28;;;;;;;31.52;12.50;;;;;;;4.86;nan;95985.53;6095510;23;20029;-86
2021/12/31 08:08:54;;;;;;;25.25;12.57;;;;;;;2.55;nan;95649.06;6096037;23;20110;-86
2021/12/31 08:11:20;;;;;;;23.73;12.90;;;;;;;3.44;nan;95760.66;6121060;23;20009;-86
2021/12/31 08:13:46;;;;;;;30.50;12.98;;;;;;;4.17;nan;95934.03;6097022;23;20010;-86
2021/12/31 08:16:12;;;;;;;24.15;11.50;;;;;;;4.63;nan;96034.25;6121427;23;20006;-86
2021/12/31 08:18:38;;;;;;;21.60;11.15;;;;;;;4.69;nan;96006.31;6098020;23;20010;-85
2021/12/31 08:21:03;;;;;;;24.45;10.85;;;;;;;1.26;nan;95446.44;6121609;23;20112;-85
2021/12/31 08:23:29;;;;;;;21.08;10.75;;;;;;;4.78;nan;96030.50;6098108;23;20014;-86
2021/12/31 08:25:54;;;;;;;22.92;12.13;;;;;;;4.12;nan;95928.63;6097582;23;20430;-86
2021/12/31 08:28:20;;;;;;;22.48;12.27;;;;;;;4.35;nan;95960.31;6096952;23;20014;-86
2021/12/31 08:30:46;;;;;;;23.27;12.65;;;;;;;2.66;nan;95671.16;6126141;23;20381;-86
2021/12/31 08:33:11;;;;;;;30.25;13.93;;;;;;;4.63;nan;95971.22;6099357;23;20017;-86
2021/12/31 08:35:37;;;;;;;24.63;12.52;;;;;;;4.37;nan;95981.94;6124691;23;20013;-86
2021/12/31 08:38:03;;;;;;;26.95;12.82;;;;;;;2.18;nan;95593.13;6097581;23;20010;-86
2021/12/31 08:40:29;;;;;;;25.15;13.20;;;;;;;4.32;nan;95873.31;6097577;23;20009;-86
2021/12/31 08:42:54;;;;;;;24.73;12.05;;;;;;;4.45;nan;95947.53;6098104;23;20089;-86
2021/12/31 08:45:20;;;;;;;22.67;11.18;;;;;;;3.97;nan;95860.69;6097661;23;20442;-86
2021/12/31 08:47:46;;;;;;;22.73;12.27;;;;;;;5.16;nan;96006.66;6097848;23;20010;-86
2021/12/31 08:50:12;;;;;;;23.00;12.00;;;;;;;4.89;nan;95959.59;6096937;23;20045;-86
2021/12/31 08:52:37;;;;;;;23.13;11.68;;;;;;;4.98;nan;95973.25;6096733;23;20105;-86
2021/12/31 08:55:05;;;;;;;22.48;12.65;;;;;;;3.82;nan;95807.75;6097316;23;20331;-86
2021/12/31 08:57:31;;;;;;;23.08;11.70;;;;;;;4.29;nan;95903.44;6121970;23;20096;-86
2021/12/31 08:59:56;;;;;;;23.90;12.82;;;;;;;4.59;nan;95917.47;6096747;23;20437;-86
2021/12/31 09:02:22;;;;;;;23.85;11.65;;;;;;;3.43;nan;95711.88;6097680;23;20014;-86
2021/12/31 09:04:47;;;;;;;20.85;11.05;;;;;;;4.12;nan;95842.00;6123137;23;20065;-86
2021/12/31 09:07:13;;;;;;;20.65;10.98;;;;;;;4.77;nan;95940.34;6124178;23;20006;-86
2021/12/31 09:09:38;;;;;;;24.42;12.65;;;;;;;4.89;nan;95909.66;6121568;23;20020;-86
2021/12/31 09:12:04;;;;;;;20.67;10.85;;;;;;;4.63;nan;95886.31;6097190;23;20316;-86
2021/12/31 09:14:30;;;;;;;15.75;8.75;;;;;;;4.87;nan;95951.16;6097347;23;20006;-86
2021/12/31 09:16:55;;;;;;;24.10;11.50;;;;;;;2.55;nan;95578.38;6097503;23;20088;-86
2021/12/31 09:19:21;;;;;;;24.10;10.38;;;;;;;5.20;nan;95969.16;6102582;23;20010;-86
2021/12/31 09:21:46;;;;;;;22.30;10.57;;;;;;;4.68;nan;95862.00;6107563;23;20006;-86
2021/12/31 09:24:12;;;;;;;20.05;10.63;;;;;;;4.76;nan;95852.00;6121388;23;20413;-86
2021/12/31 09:26:37;;;;;;;18.10;10.13;;;;;;;4.71;nan;95848.44;6121436;23;20006;-86
2021/12/31 09:29:03;;;;;;;23.63;11.80;;;;;;;4.32;nan;95790.09;6096902;23;20022;-86
2021/12/31 09:31:29;;;;;;;20.27;10.30;;;;;;;4.49;nan;95785.06;6097269;23;20330;-86
2021/12/31 09:33:54;;;;;;;23.42;11.02;;;;;;;4.63;nan;95820.66;6096533;23;20034;-86
2021/12/31 09:36:23;;;;;;;23.25;12.07;;;;;;;4.96;nan;95834.16;6097372;23;20013;-86
2021/12/31 09:38:48;;;;;;;23.02;11.20;;;;;;;5.18;nan;95862.63;6096963;23;20009;-86
2021/12/31 09:41:14;;;;;;;28.08;11.57;;;;;;;5.59;nan;95943.38;6123942;23;20046;-86
2021/12/31 09:43:44;;;;;;;24.20;11.80;;;;;;;4.62;nan;95771.75;6123898;23;20432;-86
2021/12/31 09:46:11;;;;;;;16.67;10.32;;;;;;;5.56;nan;95936.75;6097083;23;20418;-86
2021/12/31 09:48:37;;;;;;;18.63;10.55;;;;;;;5.00;nan;95810.88;6097811;23;20494;-86
2021/12/31 09:51:06;;;;;;;22.45;12.27;;;;;;;5.81;nan;95950.56;6095833;23;20013;-86
2021/12/31 09:53:32;;;;;;;24.95;11.82;;;;;;;5.10;nan;95855.84;6096541;23;20402;-86
2021/12/31 09:55:58;;;;;;;29.42;12.48;;;;;;;4.92;nan;95790.97;6096835;23;20052;-86
2021/12/31 09:58:26;;;;;;;26.15;12.20;;;;;;;5.81;nan;95911.06;6096251;23;20014;-86
2021/12/31 10:00:55;;;;;;;23.20;12.18;;;;;;;5.40;nan;95838.22;6096541;23;20014;-86
2021/12/31 10:03:25;;;;;;;25.52;12.43;;;;;;;6.08;nan;95929.94;6096645;23;20025;-86
2021/12/31 10:06:17;;;;;;;33.63;13.52;;;;;;;6.24;nan;95932.94;6096495;23;20481;-86
2021/12/31 10:08:45;;;;;;;28.30;13.38;;;;;;;5.99;nan;95854.16;6116845;23;20017;-86
2021/12/31 10:11:18;;;;;;;26.80;12.07;;;;;;;6.19;nan;95887.00;6096328;23;20298;-86
2021/12/31 10:13:56;;;;;;;24.95;12.45;;;;;;;6.56;nan;95916.56;6097860;23;19994;-86
2021/12/31 10:16:23;;;;;;;22.25;11.23;;;;;;;6.69;nan;95918.16;6122924;23;20002;-86
2021/12/31 10:19:03;;;;;;;28.77;11.93;;;;;;;6.29;nan;95849.56;6096766;23;20125;-86
2021/12/31 10:21:34;;;;;;;24.25;11.18;;;;;;;6.80;nan;95872.53;6097017;23;20092;-86
2021/12/31 10:24:35;;;;;;;22.25;11.00;;;;;;;6.45;nan;95784.84;6126973;23;20001;-86
2021/12/31 10:27:02;;;;;;;25.30;9.75;;;;;;;7.63;nan;95897.59;6098383;23;20017;-87
2021/12/31 10:29:29;;;;;;;25.58;10.63;;;;;;;7.74;nan;95881.69;6122789;23;20017;-87
2021/12/31 10:31:55;;;;;;;25.45;10.20;;;;;;;8.13;nan;95861.47;6096429;23;20017;-86
2021/12/31 10:34:31;;;;;;;24.67;10.05;;;;;;;8.69;nan;95880.81;6096409;23;20410;-87
2021/12/31 10:37:15;;;;;;;19.67;9.85;;;;;;;8.74;nan;95872.94;6096940;23;20009;-87
2021/12/31 10:39:43;;;;;;;21.00;9.93;;;;;;;4.29;nan;95239.16;6121459;23;20165;-87
2021/12/31 10:42:11;;;;;;;17.25;8.85;;;;;;;8.50;nan;95834.53;6121746;23;20181;-87
2021/12/31 10:44:53;;;;;;;18.30;10.32;;;;;;;7.37;nan;95669.41;6128521;23;20089;-87
2021/12/31 10:47:28;;;;;;;21.83;9.27;;;;;;;8.48;nan;95824.19;6135261;23;20032;-87
2021/12/31 10:49:59;;;;;;;16.77;9.30;;;;;;;8.93;nan;95862.03;6122516;23;20096;-87
2021/12/31 10:52:29;;;;;;;;;;;;;;;9.43;nan;95853.88;6097401;23;20085;-87
2021/12/31 10:55:03;;;;;;;14.77;8.13;;;;;;;9.27;nan;95859.03;6123038;23;19913;-87
2021/12/31 10:57:38;;;;;;;16.35;8.60;;;;;;;7.02;nan;95543.03;6120965;23;20032;-87
2021/12/31 11:00:05;;;;;;;24.05;9.77;;;;;;;9.04;nan;95809.03;6096120;23;20017;-86
2021/12/31 11:02:33;;;;;;;18.00;10.07;;;;;;;8.59;nan;95771.47;6120865;23;20018;-87
2021/12/31 11:04:59;;;;;;;17.48;8.98;;;;;;;9.08;nan;95864.91;6122505;23;20350;-87
2021/12/31 11:07:29;;;;;;;19.75;9.32;;;;;;;7.85;nan;95723.44;6121406;23;20029;-87
2021/12/31 11:09:59;;;;;;;22.90;9.80;;;;;;;8.74;nan;95872.13;6122610;23;20093;-87
2021/12/31 11:12:26;;;;;;;22.52;9.10;;;;;;;8.59;nan;95851.59;6121006;23;20001;-87
2021/12/31 11:14:53;;;;;;;16.67;9.45;;;;;;;7.95;nan;95771.09;6120745;23;20005;-87
2021/12/31 11:17:19;;;;;;;18.38;9.20;;;;;;;7.12;nan;95698.81;6095858;23;20005;-87
2021/12/31 11:19:45;;;;;;;16.80;8.77;;;;;;;7.86;nan;95865.78;6120236;23;20016;-87
2021/12/31 11:22:13;;;;;;;18.92;9.77;;;;;;;7.95;nan;95858.25;6096385;23;20029;-87
2021/12/31 11:24:39;;;;;;;19.20;9.05;;;;;;;7.63;nan;95758.47;6096960;23;20009;-87
2021/12/31 11:27:28;;;;;;;14.52;8.15;;;;;;;7.86;nan;95804.25;6120778;23;20014;-87
2021/12/31 11:29:55;;;;;;;16.98;8.98;;;;;;;7.66;nan;95759.84;6120532;23;20018;-87
2021/12/31 11:32:46;;;;;;;20.65;8.82;;;;;;;8.27;nan;95864.56;6095470;23;20354;-87
2021/12/31 11:35:37;;;;;;;15.07;8.40;;;;;;;8.21;nan;95867.38;6121770;23;20093;-87
2021/12/31 11:38:26;;;;;;;19.15;7.90;;;;;;;7.95;nan;95847.69;6095907;23;20077;-87
2021/12/31 11:41:02;;;;;;;17.83;9.20;;;;;;;8.16;nan;95870.75;6088153;23;20014;-87
2021/12/31 11:43:29;;;;;;;20.58;9.25;;;;;;;7.99;nan;95822.41;6096298;23;20369;-87
2021/12/31 11:46:10;;;;;;;11.32;6.50;;;;;;;8.22;nan;95861.88;6122131;23;20018;-87
2021/12/31 11:48:51;;;;;;;14.32;8.25;;;;;;;8.16;nan;95868.13;6098422;23;20063;-87